createdAt,value
2023-05-15T00:01:27.047Z,2.50
2023-05-15T00:03:55.092Z,2.70
2023-05-15T00:06:23.386Z,2.70
2023-05-15T00:08:51.002Z,2.70
2023-05-15T00:11:18.516Z,2.90
2023-05-15T00:13:46.080Z,2.90
2023-05-15T00:16:14.180Z,2.50
2023-05-15T00:18:41.743Z,2.60
2023-05-15T00:21:09.279Z,3.00
2023-05-15T00:23:36.768Z,2.90
2023-05-15T00:26:04.380Z,2.60
2023-05-15T00:28:31.825Z,2.50
2023-05-15T00:30:59.358Z,2.60
2023-05-15T00:33:26.835Z,2.50
2023-05-15T00:35:54.393Z,2.90
2023-05-15T00:38:22.035Z,2.70
2023-05-15T00:40:49.595Z,2.70
2023-05-15T00:43:18.273Z,3.00
2023-05-15T00:45:46.287Z,3.20
2023-05-15T00:48:14.358Z,3.00
2023-05-15T00:50:43.308Z,2.50
2023-05-15T00:53:11.178Z,2.90
2023-05-15T00:55:40.885Z,2.60
2023-05-15T00:58:13.580Z,3.40
2023-05-15T01:00:43.766Z,2.70
2023-05-15T01:03:11.842Z,2.70
2023-05-15T01:05:39.902Z,2.60
2023-05-15T01:08:20.783Z,3.10
2023-05-15T01:10:52.136Z,3.30
2023-05-15T01:13:21.933Z,2.80
2023-05-15T01:15:52.502Z,2.80
2023-05-15T01:18:20.081Z,2.60
2023-05-15T01:21:05.594Z,3.20
2023-05-15T01:23:46.666Z,2.80
2023-05-15T01:26:33.724Z,2.50
2023-05-15T01:29:23.977Z,2.80
2023-05-15T01:32:02.123Z,3.00
2023-05-15T01:34:50.108Z,2.40
2023-05-15T01:37:25.733Z,2.90
2023-05-15T01:40:01.266Z,2.90
2023-05-15T01:42:33.369Z,2.90
2023-05-15T01:45:06.059Z,3.00
2023-05-15T01:47:41.180Z,2.80
2023-05-15T01:50:14.606Z,2.60
2023-05-15T01:52:47.314Z,3.00
2023-05-15T01:55:16.295Z,2.70
2023-05-15T01:57:47.680Z,2.80
2023-05-15T02:00:16.951Z,3.10
2023-05-15T02:02:46.728Z,2.50
2023-05-15T02:05:15.407Z,2.90
2023-05-15T02:07:44.907Z,2.80
2023-05-15T02:10:14.265Z,3.00
2023-05-15T02:12:42.692Z,2.80
2023-05-15T02:15:11.438Z,2.90
2023-05-15T02:17:39.115Z,3.00
2023-05-15T02:20:09.603Z,2.70
2023-05-15T02:22:37.079Z,2.90
2023-05-15T02:25:04.975Z,3.00
2023-05-15T02:27:46.169Z,2.60
2023-05-15T02:30:35.552Z,2.60
2023-05-15T02:33:14.716Z,3.00
2023-05-15T02:35:49.119Z,2.80
2023-05-15T02:38:23.053Z,3.10
2023-05-15T02:40:54.232Z,3.00
2023-05-15T02:43:22.582Z,3.30
2023-05-15T02:45:52.599Z,3.00
2023-05-15T02:48:22.607Z,3.00
2023-05-15T02:50:52.318Z,3.30
2023-05-15T02:53:19.926Z,3.20
2023-05-15T02:55:50.055Z,2.80
2023-05-15T02:58:17.961Z,2.80
2023-05-15T03:00:45.624Z,3.00
2023-05-15T03:03:13.187Z,3.00
2023-05-15T03:05:40.722Z,3.00
2023-05-15T03:08:08.264Z,2.80
2023-05-15T03:10:35.753Z,3.20
2023-05-15T03:13:03.303Z,2.90
2023-05-15T03:15:30.972Z,2.80
2023-05-15T03:17:58.520Z,2.80
2023-05-15T03:20:26.104Z,3.40
2023-05-15T03:22:53.981Z,3.20
2023-05-15T03:25:22.894Z,2.70
2023-05-15T03:27:50.766Z,2.80
2023-05-15T03:30:18.321Z,3.00
2023-05-15T03:32:46.051Z,3.10
2023-05-15T03:35:14.840Z,3.10
2023-05-15T03:37:42.460Z,3.20
2023-05-15T03:40:10.419Z,3.10
2023-05-15T03:42:37.927Z,3.10
2023-05-15T03:45:06.131Z,3.00
2023-05-15T03:47:33.684Z,3.00
2023-05-15T03:50:01.183Z,2.80
2023-05-15T03:52:28.651Z,3.50
2023-05-15T03:54:56.285Z,3.70
2023-05-15T03:57:23.790Z,4.50
2023-05-15T03:59:51.299Z,3.40
2023-05-15T04:02:18.727Z,3.20
2023-05-15T04:04:46.274Z,3.40
2023-05-15T04:07:13.775Z,3.30
2023-05-15T04:09:41.301Z,3.40
2023-05-15T04:12:09.101Z,3.20
2023-05-15T04:14:36.665Z,3.30
2023-05-15T04:17:04.480Z,3.20
2023-05-15T04:19:32.040Z,3.30
2023-05-15T04:21:59.578Z,3.30
2023-05-15T04:24:27.098Z,3.30
2023-05-15T04:26:54.713Z,3.20
2023-05-15T04:29:23.572Z,3.50
2023-05-15T04:31:51.127Z,3.40
2023-05-15T04:34:18.814Z,3.50
2023-05-15T04:36:46.368Z,3.60
2023-05-15T04:39:14.053Z,3.30
2023-05-15T04:41:41.586Z,3.80
2023-05-15T04:44:09.213Z,3.40
2023-05-15T04:46:37.770Z,3.50
2023-05-15T04:49:06.757Z,3.00
2023-05-15T04:51:34.244Z,3.50
2023-05-15T04:54:01.700Z,3.20
2023-05-15T04:56:29.212Z,3.60
2023-05-15T04:58:56.636Z,3.20
2023-05-15T05:01:25.510Z,3.50
2023-05-15T05:03:53.168Z,3.50
2023-05-15T05:06:21.968Z,3.40
2023-05-15T05:08:49.460Z,3.40
2023-05-15T05:11:17.095Z,3.60
2023-05-15T05:13:44.630Z,3.70
2023-05-15T05:16:12.214Z,3.50
2023-05-15T05:18:39.834Z,3.40
2023-05-15T05:21:07.359Z,3.70
2023-05-15T05:23:34.923Z,3.60
2023-05-15T05:26:04.194Z,3.50
2023-05-15T05:28:35.927Z,3.30
2023-05-15T05:31:03.929Z,3.10
2023-05-15T05:33:34.606Z,3.40
2023-05-15T05:36:02.166Z,3.80
2023-05-15T05:38:32.272Z,3.60
2023-05-15T05:41:01.274Z,3.80
2023-05-15T05:43:28.898Z,3.40
2023-05-15T05:45:58.007Z,3.30
2023-05-15T05:48:26.805Z,3.40
2023-05-15T05:50:58.195Z,4.50
2023-05-15T05:53:28.275Z,4.10
2023-05-15T05:55:56.271Z,3.90
2023-05-15T05:58:26.127Z,3.90
2023-05-15T06:00:57.622Z,3.80
2023-05-15T06:03:27.800Z,4.00
2023-05-15T06:05:57.792Z,5.10
2023-05-15T06:08:26.024Z,14.00
2023-05-15T06:10:53.934Z,5.20
2023-05-15T06:13:22.169Z,6.40
2023-05-15T06:15:51.345Z,3.30
2023-05-15T06:18:18.928Z,3.40
2023-05-15T06:20:46.991Z,16.40
2023-05-15T06:23:14.543Z,7.70
2023-05-15T06:25:42.426Z,3.70
2023-05-15T06:28:09.925Z,4.10
2023-05-15T06:30:37.515Z,3.90
2023-05-15T06:33:05.292Z,3.90
2023-05-15T06:35:32.999Z,8.50
2023-05-15T06:38:00.876Z,5.70
2023-05-15T06:40:28.562Z,3.70
2023-05-15T06:42:59.071Z,4.50
2023-05-15T06:45:27.499Z,4.70
2023-05-15T06:47:55.613Z,4.40
2023-05-15T06:50:23.412Z,8.90
2023-05-15T06:52:51.394Z,4.90
2023-05-15T06:55:20.659Z,4.20
2023-05-15T06:57:48.125Z,4.00
2023-05-15T07:00:16.336Z,4.10
2023-05-15T07:02:44.163Z,4.20
2023-05-15T07:05:11.816Z,6.60
2023-05-15T07:07:39.618Z,5.60
2023-05-15T07:10:08.413Z,6.70
2023-05-15T07:12:36.028Z,4.30
2023-05-15T07:15:13.564Z,4.20
2023-05-15T07:17:41.185Z,4.80
2023-05-15T07:20:09.437Z,4.40
2023-05-15T07:22:44.623Z,4.40
2023-05-15T07:25:17.192Z,4.80
2023-05-15T07:27:45.066Z,4.90
2023-05-15T07:30:13.149Z,4.70
2023-05-15T07:32:41.418Z,5.10
2023-05-15T07:35:11.412Z,7.50
2023-05-15T07:37:39.356Z,5.00
2023-05-15T07:40:07.990Z,6.20
2023-05-15T07:42:35.663Z,4.80
2023-05-15T07:45:03.379Z,4.40
2023-05-15T07:47:30.966Z,4.70
2023-05-15T07:49:58.667Z,5.20
2023-05-15T07:52:27.035Z,5.00
2023-05-15T07:54:57.282Z,5.00
2023-05-15T07:57:26.649Z,4.60
2023-05-15T07:59:54.160Z,4.50
2023-05-15T08:02:21.692Z,4.70
2023-05-15T08:04:49.365Z,4.70
2023-05-15T08:07:16.966Z,4.70
2023-05-15T08:09:44.457Z,4.60
2023-05-15T08:12:23.412Z,4.60
2023-05-15T08:14:53.281Z,4.60
2023-05-15T08:17:21.905Z,4.40
2023-05-15T08:19:49.694Z,4.90
2023-05-15T08:22:17.930Z,4.40
2023-05-15T08:24:45.655Z,4.40
2023-05-15T08:27:13.595Z,4.70
2023-05-15T08:29:41.586Z,5.00
2023-05-15T08:32:10.248Z,4.60
2023-05-15T08:34:38.508Z,4.50
2023-05-15T08:37:06.882Z,4.50
2023-05-15T08:39:34.531Z,5.40
2023-05-15T08:42:18.076Z,5.10
2023-05-15T08:44:46.291Z,5.20
2023-05-15T08:47:15.629Z,5.20
2023-05-15T08:50:05.514Z,4.60
2023-05-15T08:52:34.061Z,4.90
2023-05-15T08:55:02.638Z,5.00
2023-05-15T08:57:32.047Z,4.80
2023-05-15T09:00:01.303Z,4.90
2023-05-15T09:02:29.486Z,4.90
2023-05-15T09:04:57.056Z,5.70
2023-05-15T09:07:25.464Z,5.60
2023-05-15T09:09:54.422Z,5.40
2023-05-15T09:12:25.281Z,5.40
2023-05-15T09:15:12.298Z,4.80
2023-05-15T09:17:40.781Z,5.80
2023-05-15T09:20:25.688Z,5.00
2023-05-15T09:22:53.610Z,5.60
2023-05-15T09:25:38.364Z,5.40
2023-05-15T09:28:25.285Z,4.60
2023-05-15T09:30:58.158Z,5.20
2023-05-15T09:33:35.141Z,5.10
2023-05-15T09:36:04.835Z,5.80
2023-05-15T09:38:34.385Z,5.80
2023-05-15T09:41:04.396Z,5.40
2023-05-15T09:43:37.826Z,5.80
2023-05-15T09:46:06.938Z,5.30
2023-05-15T09:48:35.931Z,5.70
2023-05-15T09:51:07.791Z,5.30
2023-05-15T09:53:35.614Z,5.80
2023-05-15T09:56:03.427Z,5.50
2023-05-15T09:58:32.153Z,5.50
2023-05-15T10:01:01.380Z,5.30
2023-05-15T10:03:29.155Z,5.50
2023-05-15T10:06:02.144Z,5.20
2023-05-15T10:08:30.067Z,5.80
2023-05-15T10:11:01.114Z,5.50
2023-05-15T10:13:34.324Z,5.80
2023-05-15T10:16:05.198Z,5.50
2023-05-15T10:18:35.912Z,5.20
2023-05-15T10:21:04.718Z,5.30
2023-05-15T10:23:36.404Z,5.20
2023-05-15T10:26:14.259Z,5.70
2023-05-15T10:28:45.711Z,10.30
2023-05-15T10:31:14.374Z,8.60
2023-05-15T10:33:43.605Z,4.90
2023-05-15T10:36:11.700Z,5.00
2023-05-15T10:38:40.364Z,5.20
2023-05-15T10:41:17.780Z,5.00
2023-05-15T10:43:46.410Z,5.00
2023-05-15T10:46:15.767Z,5.10
2023-05-15T10:48:43.763Z,4.80
2023-05-15T10:51:19.152Z,5.00
2023-05-15T10:53:46.985Z,5.10
2023-05-15T10:56:19.230Z,5.70
2023-05-15T10:58:52.553Z,5.10
2023-05-15T11:01:40.018Z,5.00
2023-05-15T11:04:19.558Z,5.60
2023-05-15T11:06:49.982Z,5.30
2023-05-15T11:09:34.496Z,5.70
2023-05-15T11:12:07.043Z,5.90
2023-05-15T11:14:40.979Z,5.40
2023-05-15T11:17:16.602Z,5.00
2023-05-15T11:19:50.831Z,4.80
2023-05-15T11:22:34.314Z,3.90
2023-05-15T11:25:14.155Z,5.10
2023-05-15T11:27:46.159Z,4.20
2023-05-15T11:30:35.975Z,4.00
2023-05-15T11:33:20.424Z,4.00
2023-05-15T11:35:48.409Z,5.60
2023-05-15T11:38:20.094Z,5.10
2023-05-15T11:40:56.586Z,5.90
2023-05-15T11:43:25.488Z,5.60
2023-05-15T11:45:58.152Z,4.50
2023-05-15T11:48:31.695Z,5.30
2023-05-15T11:51:02.217Z,5.90
2023-05-15T11:53:31.050Z,5.20
2023-05-15T11:55:59.220Z,5.40
2023-05-15T11:58:26.864Z,5.30
2023-05-15T12:00:54.910Z,5.30
2023-05-15T12:03:32.334Z,5.60
2023-05-15T12:06:02.393Z,5.90
2023-05-15T12:08:34.941Z,4.90
2023-05-15T12:11:03.731Z,5.60
2023-05-15T12:13:32.960Z,5.60
2023-05-15T12:16:03.464Z,4.50
2023-05-15T12:18:32.503Z,5.60
2023-05-15T12:21:00.902Z,5.40
2023-05-15T12:23:28.954Z,7.80
2023-05-15T12:26:03.342Z,6.40
2023-05-15T12:28:34.347Z,6.60
2023-05-15T12:31:02.703Z,6.20
2023-05-15T12:33:30.537Z,8.40
2023-05-15T12:36:01.244Z,5.70
2023-05-15T12:38:30.482Z,7.50
2023-05-15T12:40:58.447Z,11.90
2023-05-15T12:43:30.859Z,11.60
2023-05-15T12:45:58.562Z,5.80
2023-05-15T12:48:32.241Z,6.60
2023-05-15T12:51:08.003Z,6.50
2023-05-15T12:53:36.080Z,6.00
2023-05-15T12:56:04.814Z,6.40
2023-05-15T12:58:33.816Z,5.70
2023-05-15T13:01:04.704Z,6.00
2023-05-15T13:03:33.983Z,6.70
2023-05-15T13:06:09.765Z,6.20
2023-05-15T13:08:41.842Z,5.60
2023-05-15T13:11:14.524Z,5.60
2023-05-15T13:13:45.003Z,6.50
2023-05-15T13:16:24.462Z,6.00
2023-05-15T13:18:52.892Z,6.00
2023-05-15T13:21:20.571Z,6.00
2023-05-15T13:23:48.798Z,6.60
2023-05-15T13:26:16.534Z,6.60
2023-05-15T13:28:49.373Z,6.60
2023-05-15T13:31:30.942Z,12.10
2023-05-15T13:33:58.586Z,8.50
2023-05-15T13:36:26.171Z,7.70
2023-05-15T13:38:53.685Z,7.70
2023-05-15T13:41:21.276Z,7.50
2023-05-15T13:43:49.448Z,6.90
2023-05-15T13:46:17.084Z,12.30
2023-05-15T13:48:44.818Z,8.30
2023-05-15T13:51:12.309Z,6.10
2023-05-15T13:53:39.864Z,10.50
2023-05-15T13:56:07.632Z,7.40
2023-05-15T13:58:35.334Z,8.10
2023-05-15T14:01:07.105Z,11.20
2023-05-15T14:03:34.885Z,7.70
2023-05-15T14:06:03.927Z,6.30
2023-05-15T14:08:31.532Z,7.50
2023-05-15T14:10:59.191Z,5.60
2023-05-15T14:13:26.686Z,5.30
2023-05-15T14:15:54.919Z,5.90
2023-05-15T14:18:22.480Z,5.20
2023-05-15T14:20:49.998Z,5.00
2023-05-15T14:23:17.566Z,6.20
2023-05-15T14:25:45.046Z,5.00
2023-05-15T14:28:13.019Z,5.10
2023-05-15T14:30:40.561Z,5.90
2023-05-15T14:33:08.183Z,5.10
2023-05-15T14:35:36.003Z,5.70
2023-05-15T14:38:04.526Z,5.20
2023-05-15T14:40:32.041Z,5.40
2023-05-15T14:42:59.538Z,5.10
2023-05-15T14:45:27.191Z,4.80
2023-05-15T14:47:54.816Z,4.50
2023-05-15T14:50:22.284Z,4.90
2023-05-15T14:52:49.805Z,4.60
2023-05-15T14:55:22.658Z,5.10
2023-05-15T14:57:50.249Z,7.10
2023-05-15T15:00:17.977Z,5.10
2023-05-15T15:02:46.441Z,6.00
2023-05-15T15:05:17.499Z,5.00
2023-05-15T15:08:05.136Z,4.90
2023-05-15T15:10:35.085Z,5.60
2023-05-15T15:13:04.025Z,5.60
2023-05-15T15:15:34.287Z,5.80
2023-05-15T15:18:02.288Z,5.70
2023-05-15T15:20:30.040Z,6.20
2023-05-15T15:22:57.768Z,7.40
2023-05-15T15:25:25.528Z,5.70
2023-05-15T15:27:53.230Z,4.40
2023-05-15T15:30:22.274Z,8.10
2023-05-15T15:32:49.876Z,5.80
2023-05-15T15:35:17.684Z,5.70
2023-05-15T15:37:45.250Z,5.40
2023-05-15T15:40:12.883Z,4.70
2023-05-15T15:42:40.513Z,4.70
2023-05-15T15:45:08.552Z,5.40
2023-05-15T15:47:36.701Z,6.90
2023-05-15T15:50:04.586Z,8.10
2023-05-15T15:52:32.132Z,6.30
2023-05-15T15:54:59.657Z,5.60
2023-05-15T15:57:29.624Z,6.30
2023-05-15T15:59:57.288Z,7.80
2023-05-15T16:02:24.940Z,6.60
2023-05-15T16:04:52.690Z,11.30
2023-05-15T16:07:20.687Z,9.50
2023-05-15T16:09:56.891Z,10.70
2023-05-15T16:12:35.787Z,10.00
2023-05-15T16:15:20.118Z,10.50
2023-05-15T16:17:54.982Z,10.30
2023-05-15T16:20:25.018Z,15.10
2023-05-15T16:22:53.157Z,8.90
2023-05-15T16:25:20.944Z,8.10
2023-05-15T16:27:48.627Z,7.90
2023-05-15T16:30:16.542Z,9.30
2023-05-15T16:32:44.267Z,10.00
2023-05-15T16:35:12.383Z,9.80
2023-05-15T16:37:40.057Z,11.60
2023-05-15T16:40:08.440Z,9.50
2023-05-15T16:42:38.244Z,10.20
2023-05-15T16:45:06.915Z,10.40
2023-05-15T16:47:36.583Z,10.30
2023-05-15T16:50:05.518Z,11.50
2023-05-15T16:52:33.137Z,10.30
2023-05-15T16:55:00.782Z,11.00
2023-05-15T16:57:28.293Z,11.90
2023-05-15T16:59:56.367Z,10.70
2023-05-15T17:02:24.018Z,9.60
2023-05-15T17:04:53.265Z,10.50
2023-05-15T17:07:21.088Z,11.70
2023-05-15T17:09:52.303Z,10.80
2023-05-15T17:12:19.788Z,29.70
2023-05-15T17:14:47.261Z,41.40
2023-05-15T17:17:14.825Z,18.30
2023-05-15T17:19:42.355Z,12.10
2023-05-15T17:22:09.918Z,11.50
2023-05-15T17:24:49.990Z,10.30
2023-05-15T17:27:19.296Z,10.50
2023-05-15T17:29:46.836Z,10.90
2023-05-15T17:32:15.836Z,9.90
2023-05-15T17:34:43.544Z,9.60
2023-05-15T17:37:11.235Z,10.70
2023-05-15T17:39:38.890Z,11.20
2023-05-15T17:42:06.498Z,8.90
2023-05-15T17:44:34.017Z,10.00
2023-05-15T17:47:03.051Z,10.80
2023-05-15T17:49:30.603Z,11.20
2023-05-15T17:51:58.422Z,11.20
2023-05-15T17:54:26.092Z,10.60
2023-05-15T17:56:53.599Z,10.70
2023-05-15T17:59:21.256Z,11.60
2023-05-15T18:01:48.927Z,11.90
2023-05-15T18:04:16.628Z,11.40
2023-05-15T18:06:44.378Z,11.10
2023-05-15T18:09:12.000Z,11.10
2023-05-15T18:11:39.558Z,10.90
2023-05-15T18:14:07.193Z,11.40
2023-05-15T18:16:34.775Z,13.30
2023-05-15T18:19:02.400Z,12.10
2023-05-15T18:21:29.874Z,11.50
2023-05-15T18:23:57.339Z,12.70
2023-05-15T18:26:25.743Z,11.90
2023-05-15T18:28:53.288Z,13.80
2023-05-15T18:31:20.899Z,10.90
2023-05-15T18:33:48.541Z,11.50
2023-05-15T18:36:16.221Z,10.90
2023-05-15T18:38:43.781Z,9.10
2023-05-15T18:41:11.274Z,9.60
2023-05-15T18:43:38.834Z,9.60
2023-05-15T18:46:06.467Z,9.80
2023-05-15T18:48:34.062Z,10.80
2023-05-15T18:51:02.304Z,11.30
2023-05-15T18:53:30.163Z,12.30
2023-05-15T18:55:57.763Z,11.40
2023-05-15T18:58:25.599Z,11.80
2023-05-15T19:00:53.345Z,11.70
2023-05-15T19:03:21.071Z,13.50
2023-05-15T19:05:48.757Z,13.20
2023-05-15T19:08:16.390Z,13.40
2023-05-15T19:10:48.289Z,12.90
2023-05-15T19:13:16.629Z,13.70
2023-05-15T19:15:52.238Z,13.70
2023-05-15T19:18:20.166Z,13.00
2023-05-15T19:20:52.368Z,13.30
2023-05-15T19:23:23.903Z,13.80
2023-05-15T19:25:51.486Z,14.20
2023-05-15T19:28:18.984Z,14.90
2023-05-15T19:30:46.644Z,14.70
2023-05-15T19:33:15.947Z,13.00
2023-05-15T19:35:44.824Z,14.10
2023-05-15T19:38:13.433Z,13.60
2023-05-15T19:40:44.344Z,14.50
2023-05-15T19:43:14.116Z,13.80
2023-05-15T19:45:42.193Z,13.10
2023-05-15T19:48:09.758Z,12.90
2023-05-15T19:50:40.619Z,13.30
2023-05-15T19:53:08.367Z,12.60
2023-05-15T19:55:36.107Z,14.40
2023-05-15T19:58:04.088Z,12.90
2023-05-15T20:00:32.307Z,14.40
2023-05-15T20:03:00.960Z,12.70
2023-05-15T20:05:29.073Z,13.40
2023-05-15T20:07:56.598Z,14.10
2023-05-15T20:10:24.701Z,13.20
2023-05-15T20:12:52.727Z,13.90
2023-05-15T20:15:20.237Z,26.30
2023-05-15T20:17:48.985Z,15.90
2023-05-15T20:20:16.620Z,14.10
2023-05-15T20:22:45.057Z,14.10
2023-05-15T20:25:12.646Z,21.50
2023-05-15T20:27:40.323Z,13.80
2023-05-15T20:30:08.603Z,16.80
2023-05-15T20:32:36.300Z,15.60
2023-05-15T20:35:04.313Z,11.70
2023-05-15T20:37:31.906Z,12.10
2023-05-15T20:40:00.004Z,12.60
2023-05-15T20:42:28.489Z,15.80
2023-05-15T20:44:56.166Z,11.50
2023-05-15T20:47:24.670Z,9.70
2023-05-15T20:49:52.253Z,9.90
2023-05-15T20:52:20.782Z,10.20
2023-05-15T20:54:51.074Z,9.90
2023-05-15T20:57:18.618Z,9.50
2023-05-15T20:59:46.302Z,11.20
2023-05-15T21:02:13.837Z,8.70
2023-05-15T21:04:41.594Z,9.40
2023-05-15T21:07:09.248Z,9.20
2023-05-15T21:09:36.786Z,9.40
2023-05-15T21:12:04.562Z,9.70
2023-05-15T21:14:32.122Z,8.60
2023-05-15T21:16:59.604Z,8.60
2023-05-15T21:19:27.216Z,10.40
2023-05-15T21:21:54.721Z,11.40
2023-05-15T21:24:22.257Z,11.00
2023-05-15T21:26:49.808Z,9.50
2023-05-15T21:29:17.280Z,10.30
2023-05-15T21:31:45.290Z,10.80
2023-05-15T21:34:12.838Z,11.80
2023-05-15T21:36:41.367Z,11.40
2023-05-15T21:39:09.471Z,10.90
2023-05-15T21:41:37.108Z,10.90
2023-05-15T21:44:04.815Z,10.60
2023-05-15T21:46:32.517Z,10.60
2023-05-15T21:49:01.773Z,11.60
2023-05-15T21:51:29.363Z,10.10
2023-05-15T21:53:58.373Z,9.70
2023-05-15T21:56:25.921Z,9.80
2023-05-15T21:58:53.551Z,9.50
2023-05-15T22:01:21.096Z,9.00
2023-05-15T22:03:48.849Z,8.70
2023-05-15T22:06:17.766Z,8.80
2023-05-15T22:08:45.318Z,8.50
2023-05-15T22:11:12.976Z,8.60
2023-05-15T22:13:40.704Z,8.60
2023-05-15T22:16:17.933Z,9.30
2023-05-15T22:18:47.493Z,8.50
2023-05-15T22:21:15.929Z,7.50
2023-05-15T22:23:43.394Z,8.20
2023-05-15T22:26:12.137Z,8.80
2023-05-15T22:28:39.602Z,8.00
2023-05-15T22:31:07.449Z,8.60
2023-05-15T22:33:35.054Z,8.30
2023-05-15T22:36:02.942Z,8.20
2023-05-15T22:38:30.449Z,9.00
2023-05-15T22:40:58.488Z,8.30
2023-05-15T22:43:26.065Z,8.70
2023-05-15T22:45:53.691Z,9.10
2023-05-15T22:48:22.651Z,9.00
2023-05-15T22:50:52.219Z,9.20
2023-05-15T22:53:19.757Z,9.20
2023-05-15T22:55:48.020Z,11.40
2023-05-15T22:58:16.279Z,8.70
2023-05-15T23:00:44.244Z,9.20
2023-05-15T23:03:11.963Z,8.20
2023-05-15T23:05:40.501Z,8.90
2023-05-15T23:08:08.062Z,8.50
2023-05-15T23:10:35.629Z,9.60
2023-05-15T23:13:04.208Z,9.40
2023-05-15T23:15:31.834Z,9.40
2023-05-15T23:17:59.417Z,9.40
2023-05-15T23:20:27.261Z,9.90
2023-05-15T23:22:55.261Z,10.10
2023-05-15T23:25:22.778Z,10.90
2023-05-15T23:27:50.443Z,10.90
2023-05-15T23:30:18.085Z,9.90
2023-05-15T23:32:45.829Z,10.80
2023-05-15T23:35:13.414Z,10.70
2023-05-15T23:37:41.064Z,13.40
2023-05-15T23:40:08.870Z,12.40
2023-05-15T23:42:36.351Z,12.30
2023-05-15T23:45:04.216Z,12.20
2023-05-15T23:47:31.756Z,12.80
2023-05-15T23:49:59.349Z,11.80
2023-05-15T23:52:27.143Z,11.30
2023-05-15T23:54:54.614Z,11.60
2023-05-15T23:57:22.433Z,12.00
2023-05-15T23:59:50.012Z,11.90
